createdAt,value
2023-04-14T00:00:43.923Z,7.73
2023-04-14T00:03:47.858Z,7.50
2023-04-14T00:06:52.733Z,8.60
2023-04-14T00:09:57.747Z,8.13
2023-04-14T00:13:01.549Z,7.33
2023-04-14T00:16:07.154Z,8.00
2023-04-14T00:19:10.824Z,8.03
2023-04-14T00:22:14.380Z,7.50
2023-04-14T00:25:19.608Z,7.80
2023-04-14T00:28:23.184Z,6.50
2023-04-14T00:31:26.741Z,6.43
2023-04-14T00:34:30.258Z,6.17
2023-04-14T00:37:33.772Z,6.07
2023-04-14T00:40:38.840Z,6.07
2023-04-14T00:43:42.288Z,6.80
2023-04-14T00:46:46.884Z,6.17
2023-04-14T00:49:51.078Z,6.70
2023-04-14T00:52:54.743Z,6.40
2023-04-14T00:56:01.030Z,6.33
2023-04-14T00:59:05.315Z,6.80
2023-04-14T01:02:08.852Z,7.23
2023-04-14T01:05:12.769Z,6.77
2023-04-14T01:08:16.746Z,6.57
2023-04-14T01:11:33.192Z,6.90
2023-04-14T01:14:46.091Z,6.07
2023-04-14T01:18:02.766Z,5.67
2023-04-14T01:21:12.362Z,6.20
2023-04-14T01:24:41.886Z,6.50
2023-04-14T01:28:14.615Z,6.23
2023-04-14T01:31:27.765Z,5.60
2023-04-14T01:34:38.685Z,5.83
2023-04-14T01:37:49.234Z,5.77
2023-04-14T01:40:58.915Z,6.20
2023-04-14T01:44:05.548Z,5.70
2023-04-14T01:47:16.560Z,5.70
2023-04-14T01:50:23.398Z,5.63
2023-04-14T01:53:29.556Z,5.87
2023-04-14T01:56:35.599Z,5.67
2023-04-14T01:59:42.640Z,5.90
2023-04-14T02:02:52.372Z,5.87
2023-04-14T02:05:57.306Z,5.63
2023-04-14T02:09:05.688Z,5.67
2023-04-14T02:12:12.973Z,6.30
2023-04-14T02:15:18.815Z,5.60
2023-04-14T02:18:24.918Z,5.57
2023-04-14T02:21:31.123Z,5.40
2023-04-14T02:24:34.860Z,5.50
2023-04-14T02:27:49.423Z,5.33
2023-04-14T02:30:57.527Z,5.70
2023-04-14T02:34:07.089Z,5.97
2023-04-14T02:37:19.686Z,5.10
2023-04-14T02:40:27.782Z,5.63
2023-04-14T02:43:37.925Z,5.30
2023-04-14T02:46:49.934Z,5.30
2023-04-14T02:49:57.812Z,5.77
2023-04-14T02:53:04.084Z,5.20
2023-04-14T02:56:09.420Z,6.07
2023-04-14T02:59:14.048Z,6.10
2023-04-14T03:02:19.370Z,6.83
2023-04-14T03:05:26.374Z,7.30
2023-04-14T03:08:30.371Z,6.07
2023-04-14T03:11:36.453Z,6.87
2023-04-14T03:14:42.129Z,6.77
2023-04-14T03:17:48.274Z,6.23
2023-04-14T03:20:55.945Z,6.10
2023-04-14T03:24:01.315Z,6.47
2023-04-14T03:27:12.223Z,5.60
2023-04-14T03:30:18.941Z,5.77
2023-04-14T03:33:27.903Z,6.00
2023-04-14T03:36:36.635Z,6.40
2023-04-14T03:39:43.062Z,6.53
2023-04-14T03:42:48.779Z,5.80
2023-04-14T03:45:52.413Z,6.33
2023-04-14T03:49:01.816Z,5.97
2023-04-14T03:52:13.318Z,5.53
2023-04-14T03:55:19.464Z,5.60
2023-04-14T03:58:24.203Z,6.70
2023-04-14T04:01:28.836Z,6.93
2023-04-14T04:04:34.796Z,8.47
2023-04-14T04:07:42.692Z,8.20
2023-04-14T04:10:49.819Z,6.93
2023-04-14T04:13:55.990Z,6.97
2023-04-14T04:17:06.966Z,7.17
2023-04-14T04:20:16.416Z,6.70
2023-04-14T04:23:23.031Z,6.27
2023-04-14T04:26:27.641Z,6.40
2023-04-14T04:29:31.660Z,7.93
2023-04-14T04:32:35.557Z,7.77
2023-04-14T04:35:41.127Z,8.23
2023-04-14T04:38:46.278Z,6.93
2023-04-14T04:41:51.971Z,6.67
2023-04-14T04:44:56.179Z,7.67
2023-04-14T04:47:59.955Z,6.87
2023-04-14T04:51:03.622Z,7.17
2023-04-14T04:54:08.560Z,7.30
2023-04-14T04:57:12.395Z,7.00
2023-04-14T05:00:16.817Z,7.13
2023-04-14T05:03:20.449Z,7.17
2023-04-14T05:06:24.197Z,6.63
2023-04-14T05:09:29.203Z,7.17
2023-04-14T05:12:32.831Z,7.07
2023-04-14T05:15:36.438Z,6.47
2023-04-14T05:18:40.777Z,6.53
2023-04-14T05:21:44.237Z,6.87
2023-04-14T05:24:52.478Z,5.87
2023-04-14T05:27:55.989Z,6.00
2023-04-14T05:31:01.350Z,7.13
2023-04-14T05:34:05.101Z,6.20
2023-04-14T05:37:08.834Z,6.73
2023-04-14T05:40:14.819Z,6.67
2023-04-14T05:43:18.567Z,6.57
2023-04-14T05:46:22.116Z,6.70
2023-04-14T05:49:25.673Z,6.67
2023-04-14T05:52:29.120Z,7.27
2023-04-14T05:55:34.214Z,7.70
2023-04-14T05:58:37.729Z,6.50
2023-04-14T06:01:41.597Z,8.30
2023-04-14T06:04:45.255Z,7.57
2023-04-14T06:07:48.892Z,7.70
2023-04-14T06:10:53.892Z,8.97
2023-04-14T06:13:57.508Z,8.00
2023-04-14T06:17:01.103Z,7.90
2023-04-14T06:20:04.831Z,6.87
2023-04-14T06:23:08.329Z,6.90
2023-04-14T06:26:13.271Z,7.20
2023-04-14T06:29:17.286Z,5.80
2023-04-14T06:32:21.264Z,4.83
2023-04-14T06:35:32.967Z,4.53
2023-04-14T06:38:37.176Z,4.80
2023-04-14T06:41:47.179Z,5.80
2023-04-14T06:44:53.440Z,4.80
2023-04-14T06:47:57.213Z,4.60
2023-04-14T06:51:00.794Z,4.33
2023-04-14T06:54:04.575Z,4.50
2023-04-14T06:57:09.469Z,5.07
2023-04-14T07:00:14.807Z,4.10
2023-04-14T07:03:19.366Z,3.70
2023-04-14T07:06:22.998Z,4.03
2023-04-14T07:09:26.577Z,3.40
2023-04-14T07:12:31.580Z,3.60
2023-04-14T07:15:35.160Z,4.03
2023-04-14T07:18:38.714Z,3.23
2023-04-14T07:21:42.287Z,3.53
2023-04-14T07:24:46.009Z,2.43
2023-04-14T07:28:02.761Z,3.20
2023-04-14T07:31:10.767Z,3.70
2023-04-14T07:34:14.326Z,3.20
2023-04-14T07:37:18.454Z,3.03
2023-04-14T07:40:22.038Z,2.87
2023-04-14T07:43:27.408Z,2.67
2023-04-14T07:46:31.533Z,2.50
2023-04-14T07:49:41.978Z,2.13
2023-04-14T07:52:45.694Z,2.67
2023-04-14T07:55:49.969Z,2.77
2023-04-14T07:58:54.891Z,2.60
2023-04-14T08:01:58.698Z,2.40
2023-04-14T08:05:02.332Z,2.73
2023-04-14T08:08:06.376Z,3.13
2023-04-14T08:11:10.000Z,3.00
2023-04-14T08:14:15.057Z,2.80
2023-04-14T08:17:25.447Z,2.67
2023-04-14T08:20:29.203Z,2.70
2023-04-14T08:23:32.716Z,3.13
2023-04-14T08:26:36.408Z,2.57
2023-04-14T08:29:41.388Z,1.93
2023-04-14T08:32:44.966Z,1.80
2023-04-14T08:35:58.910Z,2.60
2023-04-14T08:39:04.834Z,2.27
2023-04-14T08:42:10.232Z,2.17
2023-04-14T08:45:15.744Z,2.13
2023-04-14T08:48:23.021Z,1.90
2023-04-14T08:51:36.077Z,2.50
2023-04-14T08:54:42.193Z,1.97
2023-04-14T08:57:47.365Z,2.20
2023-04-14T09:00:54.886Z,2.17
2023-04-14T09:03:59.853Z,1.77
2023-04-14T09:07:04.753Z,1.97
2023-04-14T09:10:12.193Z,1.80
2023-04-14T09:13:20.989Z,1.67
2023-04-14T09:16:27.431Z,1.80
2023-04-14T09:19:31.481Z,1.67
2023-04-14T09:22:35.903Z,1.47
2023-04-14T09:25:40.787Z,1.80
2023-04-14T09:28:44.583Z,1.00
2023-04-14T09:31:49.765Z,1.20
2023-04-14T09:34:56.623Z,1.47
2023-04-14T09:38:01.951Z,1.47
2023-04-14T09:41:08.325Z,1.30
2023-04-14T09:44:12.064Z,1.00
2023-04-14T09:47:21.478Z,1.27
2023-04-14T09:50:25.262Z,1.53
2023-04-14T09:53:30.746Z,0.97
2023-04-14T09:56:34.410Z,1.00
2023-04-14T09:59:40.419Z,1.57
2023-04-14T10:02:55.827Z,1.20
2023-04-14T10:05:59.816Z,1.67
2023-04-14T10:09:04.455Z,1.03
2023-04-14T10:12:10.652Z,1.40
2023-04-14T10:15:30.134Z,1.40
2023-04-14T10:18:35.329Z,1.27
2023-04-14T10:21:39.320Z,1.30
2023-04-14T10:24:43.647Z,1.70
2023-04-14T10:27:47.897Z,1.80
2023-04-14T10:30:54.372Z,1.67
2023-04-14T10:33:59.509Z,1.57
2023-04-14T10:37:16.306Z,1.53
2023-04-14T10:40:22.241Z,1.17
2023-04-14T10:43:30.040Z,1.70
2023-04-14T10:46:44.976Z,1.50
2023-04-14T10:49:50.719Z,1.50
2023-04-14T10:52:56.792Z,1.20
2023-04-14T10:56:06.083Z,1.83
2023-04-14T10:59:13.491Z,1.50
2023-04-14T11:02:31.221Z,1.80
2023-04-14T11:05:37.841Z,1.53
2023-04-14T11:08:52.652Z,1.40
2023-04-14T11:11:58.334Z,1.30
2023-04-14T11:15:05.568Z,1.40
2023-04-14T11:18:15.053Z,1.23
2023-04-14T11:21:21.835Z,1.20
2023-04-14T11:24:26.662Z,1.70
2023-04-14T11:27:33.512Z,1.30
2023-04-14T11:30:37.732Z,1.30
2023-04-14T11:33:42.920Z,1.30
2023-04-14T11:36:48.519Z,1.30
2023-04-14T11:39:53.157Z,1.17
2023-04-14T11:43:00.850Z,1.33
2023-04-14T11:46:08.466Z,1.43
2023-04-14T11:49:12.972Z,1.30
2023-04-14T11:52:20.967Z,1.60
2023-04-14T11:55:24.836Z,1.53
2023-04-14T11:58:30.416Z,1.40
2023-04-14T12:01:34.348Z,1.40
2023-04-14T12:04:38.317Z,1.20
2023-04-14T12:07:45.879Z,1.50
2023-04-14T12:10:51.743Z,1.70
2023-04-14T12:13:55.569Z,1.87
2023-04-14T12:16:59.425Z,1.57
2023-04-14T12:20:04.003Z,1.60
2023-04-14T12:23:09.293Z,1.43
2023-04-14T12:26:13.502Z,1.00
2023-04-14T12:29:17.210Z,1.60
2023-04-14T12:32:22.294Z,1.50
2023-04-14T12:35:26.421Z,2.00
2023-04-14T12:38:31.594Z,1.53
2023-04-14T12:41:40.233Z,1.70
2023-04-14T12:44:55.148Z,1.63
2023-04-14T12:48:00.824Z,2.00
2023-04-14T12:51:11.736Z,1.57
2023-04-14T12:54:17.694Z,1.70
2023-04-14T12:57:22.703Z,1.70
2023-04-14T13:00:35.915Z,2.00
2023-04-14T13:03:46.077Z,1.90
2023-04-14T13:06:49.914Z,2.10
2023-04-14T13:09:54.996Z,1.70
2023-04-14T13:12:58.662Z,1.73
2023-04-14T13:16:15.119Z,1.80
2023-04-14T13:19:20.410Z,1.97
2023-04-14T13:22:24.300Z,2.23
2023-04-14T13:25:29.270Z,1.70
2023-04-14T13:28:33.002Z,2.00
2023-04-14T13:31:37.024Z,2.13
2023-04-14T13:34:41.907Z,1.60
2023-04-14T13:37:45.385Z,1.03
2023-04-14T13:40:50.448Z,1.50
2023-04-14T13:43:54.280Z,1.90
2023-04-14T13:46:57.756Z,2.23
2023-04-14T13:50:01.455Z,1.70
2023-04-14T13:53:05.646Z,2.10
2023-04-14T13:56:10.818Z,1.77
2023-04-14T13:59:16.245Z,1.90
2023-04-14T14:02:19.784Z,2.17
2023-04-14T14:05:23.382Z,2.70
2023-04-14T14:08:26.931Z,2.20
2023-04-14T14:11:31.924Z,2.17
2023-04-14T14:14:35.732Z,2.30
2023-04-14T14:17:39.292Z,1.90
2023-04-14T14:20:42.940Z,2.43
2023-04-14T14:23:46.653Z,2.13
2023-04-14T14:26:51.686Z,1.90
2023-04-14T14:29:55.200Z,2.37
2023-04-14T14:32:58.744Z,1.83
2023-04-14T14:36:02.729Z,1.93
2023-04-14T14:39:06.317Z,1.77
2023-04-14T14:42:11.686Z,1.97
2023-04-14T14:45:15.432Z,2.20
2023-04-14T14:48:22.446Z,2.07
2023-04-14T14:51:27.726Z,2.10
2023-04-14T14:54:31.334Z,1.90
2023-04-14T14:57:36.351Z,2.00
2023-04-14T15:00:40.330Z,2.00
2023-04-14T15:03:44.627Z,2.30
2023-04-14T15:06:48.279Z,1.70
2023-04-14T15:09:52.361Z,1.67
2023-04-14T15:12:57.660Z,1.90
2023-04-14T15:16:01.225Z,1.67
2023-04-14T15:19:05.271Z,2.23
2023-04-14T15:22:09.648Z,2.17
2023-04-14T15:25:13.213Z,1.93
2023-04-14T15:28:18.204Z,2.57
2023-04-14T15:31:21.772Z,1.73
2023-04-14T15:34:26.086Z,1.87
2023-04-14T15:37:29.755Z,1.90
2023-04-14T15:40:33.296Z,1.60
2023-04-14T15:43:38.240Z,2.00
2023-04-14T15:46:41.748Z,1.70
2023-04-14T15:49:48.471Z,1.77
2023-04-14T15:52:55.879Z,1.90
2023-04-14T15:55:59.583Z,2.37
2023-04-14T15:59:04.688Z,1.73
2023-04-14T16:02:08.762Z,1.80
2023-04-14T16:05:12.915Z,2.73
2023-04-14T16:08:17.014Z,1.90
2023-04-14T16:11:20.652Z,1.70
2023-04-14T16:14:25.499Z,1.97
2023-04-14T16:17:29.080Z,1.67
2023-04-14T16:20:32.637Z,2.03
2023-04-14T16:23:36.292Z,1.90
2023-04-14T16:26:39.817Z,2.13
2023-04-14T16:29:44.912Z,2.10
2023-04-14T16:32:48.408Z,2.03
2023-04-14T16:35:51.988Z,1.90
2023-04-14T16:38:55.745Z,1.97
2023-04-14T16:42:02.110Z,1.90
2023-04-14T16:45:08.866Z,1.90
2023-04-14T16:48:12.378Z,1.50
2023-04-14T16:51:15.935Z,1.73
2023-04-14T16:54:19.435Z,1.63
2023-04-14T16:57:23.165Z,1.60
2023-04-14T17:00:28.649Z,1.90
2023-04-14T17:03:32.529Z,1.30
2023-04-14T17:06:36.207Z,2.00
2023-04-14T17:09:39.705Z,1.93
2023-04-14T17:12:43.564Z,1.67
2023-04-14T17:15:58.970Z,2.00
2023-04-14T17:19:11.705Z,2.00
2023-04-14T17:22:15.586Z,1.83
2023-04-14T17:25:20.975Z,1.60
2023-04-14T17:28:27.333Z,1.93
2023-04-14T17:31:33.677Z,1.90
2023-04-14T17:34:37.722Z,2.03
2023-04-14T17:37:41.659Z,2.67
2023-04-14T17:40:45.204Z,2.03
2023-04-14T17:43:48.827Z,2.67
2023-04-14T17:46:54.229Z,2.37
2023-04-14T17:49:57.858Z,2.80
2023-04-14T17:53:01.819Z,2.10
2023-04-14T17:56:06.162Z,2.40
2023-04-14T17:59:11.028Z,2.70
2023-04-14T18:02:16.828Z,2.40
2023-04-14T18:05:20.940Z,2.27
2023-04-14T18:08:24.752Z,2.90
2023-04-14T18:11:29.836Z,2.67
2023-04-14T18:14:34.434Z,3.20
2023-04-14T18:17:39.427Z,3.57
2023-04-14T18:20:46.814Z,3.20
2023-04-14T18:27:00.266Z,3.27
2023-04-14T18:30:59.565Z,2.73
2023-04-14T18:34:09.373Z,3.40
2023-04-14T18:37:12.893Z,3.13
2023-04-14T18:40:22.695Z,3.30
2023-04-14T18:43:30.254Z,3.40
2023-04-14T18:46:37.867Z,3.50
2023-04-14T18:49:42.997Z,3.60
2023-04-14T18:52:46.611Z,3.40
2023-04-14T18:55:51.351Z,3.40
2023-04-14T18:58:55.939Z,3.77
2023-04-14T19:01:59.922Z,3.50
2023-04-14T19:05:05.872Z,3.47
2023-04-14T19:08:09.840Z,3.30
2023-04-14T19:11:16.211Z,4.23
2023-04-14T19:14:25.335Z,3.33
2023-04-14T19:17:29.235Z,3.70
2023-04-14T19:20:34.695Z,4.77
2023-04-14T19:23:40.931Z,3.57
2023-04-14T19:26:45.228Z,4.63
2023-04-14T19:29:49.019Z,4.20
2023-04-14T19:32:53.516Z,4.40
2023-04-14T19:35:58.889Z,3.70
2023-04-14T19:39:04.149Z,4.60
2023-04-14T19:42:08.071Z,4.30
2023-04-14T19:45:12.389Z,4.30
2023-04-14T19:48:23.538Z,4.17
2023-04-14T19:51:29.376Z,3.83
2023-04-14T19:54:32.886Z,4.50
2023-04-14T19:57:36.580Z,4.23
2023-04-14T20:00:41.085Z,4.57
2023-04-14T20:04:08.297Z,4.53
2023-04-14T20:07:10.283Z,4.87
2023-04-14T20:10:14.410Z,5.30
2023-04-14T20:13:19.066Z,4.80
2023-04-14T20:16:24.602Z,4.33
2023-04-14T20:19:28.124Z,4.80
2023-04-14T20:22:34.265Z,5.80
2023-04-14T20:25:38.814Z,4.77
2023-04-14T20:28:42.838Z,5.23
2023-04-14T20:31:46.595Z,5.07
2023-04-14T20:34:50.053Z,4.90
2023-04-14T20:37:55.614Z,4.97
2023-04-14T20:40:59.265Z,4.73
2023-04-14T20:44:03.482Z,5.47
2023-04-14T20:47:08.353Z,5.20
2023-04-14T20:50:12.392Z,4.60
2023-04-14T20:53:17.951Z,5.00
2023-04-14T20:56:22.514Z,5.00
2023-04-14T20:59:26.277Z,4.73
2023-04-14T21:02:29.989Z,5.00
2023-04-14T21:05:33.842Z,4.57
2023-04-14T21:08:40.378Z,4.60
2023-04-14T21:11:43.888Z,4.60
2023-04-14T21:15:44.556Z,5.07
2023-04-14T21:18:11.932Z,4.83
2023-04-14T21:21:15.415Z,5.30
2023-04-14T21:24:20.372Z,5.13
2023-04-14T21:27:23.882Z,5.73
2023-04-14T21:30:27.630Z,5.60
2023-04-14T21:33:32.247Z,5.97
2023-04-14T21:36:36.290Z,5.90
2023-04-14T21:39:42.639Z,5.70
2023-04-14T21:42:46.183Z,5.90
2023-04-14T21:45:50.036Z,6.07
2023-04-14T21:48:53.743Z,5.83
2023-04-14T21:51:57.462Z,6.00
2023-04-14T21:55:02.400Z,6.30
2023-04-14T21:58:06.058Z,6.83
2023-04-14T22:01:10.377Z,6.90
2023-04-14T22:04:22.181Z,6.27
2023-04-14T22:07:32.459Z,6.43
2023-04-14T22:10:41.247Z,6.40
2023-04-14T22:13:44.703Z,6.50
2023-04-14T22:16:48.844Z,6.97
2023-04-14T22:19:52.551Z,7.20
2023-04-14T22:22:56.015Z,8.40
2023-04-14T22:26:01.042Z,7.37
2023-04-14T22:29:05.211Z,7.57
2023-04-14T22:32:08.774Z,8.13
2023-04-14T22:35:12.428Z,8.00
2023-04-14T22:38:15.931Z,7.43
2023-04-14T22:41:21.082Z,7.93
2023-04-14T22:44:24.587Z,8.00
2023-04-14T22:47:28.128Z,7.90
2023-04-14T22:50:32.044Z,8.20
2023-04-14T22:53:36.187Z,7.93
2023-04-14T22:56:41.250Z,7.33
2023-04-14T22:59:44.914Z,8.20
2023-04-14T23:02:48.980Z,6.73
2023-04-14T23:05:52.772Z,6.80
2023-04-14T23:08:56.273Z,7.17
2023-04-14T23:12:02.594Z,7.43
2023-04-14T23:15:08.137Z,6.30
2023-04-14T23:18:11.746Z,7.00
2023-04-14T23:21:15.572Z,7.20
2023-04-14T23:24:19.406Z,6.90
2023-04-14T23:27:24.339Z,6.47
2023-04-14T23:30:28.787Z,6.87
2023-04-14T23:33:32.318Z,7.13
2023-04-14T23:36:37.077Z,7.30
2023-04-14T23:39:40.759Z,6.90
2023-04-14T23:42:45.903Z,6.17
2023-04-14T23:45:49.449Z,6.87
2023-04-14T23:48:53.290Z,7.10
2023-04-14T23:51:58.295Z,6.87
2023-04-14T23:55:02.072Z,7.30
2023-04-14T23:58:07.004Z,7.27
